LIME/BGY METAR and TAF weather

Enter ICAO airport designator
Station Type Date Time Source
LIME METAR 2020/04/05 13:20 UTC NOAA

LIME 051320Z 17005KT 100V220 CAVOK 17/01 Q1024 NOSIG


Station Type Date Time Source
LIME Decoded METAR 2020/04/05 13:20 UTC NOAA

Bergamo / Orio Al Serio, Italy (LIME) 45-40N 009-42E 237M
Apr 05, 2020 - 09:20 AM EDT / 2020.04.05 1320 UTC
Wind: from the S (170 degrees) at 6 MPH (5 KT) (direction variable):0
Visibility: greater than 7 mile(s):0
Temperature: 62 F (17 C)
Dew Point: 33 F (1 C)
Relative Humidity: 33%
Pressure (altimeter): 30.24 in. Hg (1024 hPa)
ob: LIME 051320Z 17005KT 100V220 CAVOK 17/01 Q1024 NOSIG
cycle: 13

Station Type Date Time Source
LIME TAF 2020/04/05 12:21 UTC NOAA

TAF LIME 051100Z 0512/0612 VRB04KT CAVOK

Example: see airport list